Graniteville, California
Current Conditions -  °F | °C
As of 12:52 PM on Tuesday 25 Nov 2014 (Local Time) from KBLU Reporting Station
Clear Clear  
Wind Chill: 57°   Ceiling: Unl
Heat Index: 57°   Visibility: 10mi
Dew Point: 35°   Wind: 5mph
Humidity: 44%   Direction: 270°W
Pressure: 30.5"   Gusts: NA
Location:  39.3517°N, 120.851°W
Report Text: KBLU 252052Z AUTO 27004KT 10SM CLR 14/02 A3050 RMK AO2 SLP283 T01390017 58015
Loading
Personal Weather Stations






























Interactive Weather Map New forecast layout! Learn more

10-Day Weather Forecast

Advertisements
Track Severe Weather on mobile